createdAt,value
2018-07-16T00:00:27.927Z,17.21
2018-07-16T00:02:56.537Z,17.41
2018-07-16T00:05:27.417Z,17.47
2018-07-16T00:07:55.965Z,17.54
2018-07-16T00:10:24.655Z,17.60
2018-07-16T00:12:53.440Z,17.64
2018-07-16T00:15:22.299Z,17.66
2018-07-16T00:17:50.872Z,17.65
2018-07-16T00:20:19.640Z,17.69
2018-07-16T00:22:48.220Z,17.67
2018-07-16T00:25:16.859Z,17.67
2018-07-16T00:27:45.459Z,17.65
2018-07-16T00:30:14.021Z,17.63
2018-07-16T00:32:42.616Z,17.64
2018-07-16T00:35:11.873Z,17.66
2018-07-16T00:37:40.769Z,17.64
2018-07-16T00:40:09.373Z,17.67
2018-07-16T00:42:38.288Z,17.67
2018-07-16T00:45:07.287Z,17.70
2018-07-16T00:47:35.872Z,17.70
2018-07-16T00:50:04.491Z,17.68
2018-07-16T00:52:33.031Z,17.66
2018-07-16T00:55:01.634Z,17.64
2018-07-16T00:57:30.259Z,17.49
2018-07-16T00:59:59.033Z,17.39
2018-07-16T01:02:27.659Z,17.31
2018-07-16T01:04:56.228Z,17.28
2018-07-16T01:07:24.989Z,17.28
2018-07-16T01:09:53.619Z,17.28
2018-07-16T01:12:22.646Z,17.30
2018-07-16T01:14:51.228Z,17.25
2018-07-16T01:17:19.868Z,17.17
2018-07-16T01:19:48.456Z,17.12
2018-07-16T01:22:17.006Z,17.05
2018-07-16T01:24:45.799Z,16.91
2018-07-16T01:27:14.957Z,16.75
2018-07-16T01:29:43.697Z,16.67
2018-07-16T01:32:12.347Z,16.59
2018-07-16T01:34:41.009Z,16.45
2018-07-16T01:37:09.710Z,16.45
2018-07-16T01:39:38.288Z,16.47
2018-07-16T01:42:06.951Z,16.28
2018-07-16T01:44:35.555Z,16.33
2018-07-16T01:47:04.171Z,16.36
2018-07-16T01:49:32.814Z,16.43
2018-07-16T01:52:01.406Z,16.51
2018-07-16T01:54:29.972Z,16.56
2018-07-16T01:56:58.524Z,16.60
2018-07-16T01:59:27.129Z,16.60
2018-07-16T02:01:55.697Z,16.53
2018-07-16T02:04:24.247Z,16.53
2018-07-16T02:06:54.696Z,16.47
2018-07-16T02:09:23.297Z,16.37
2018-07-16T02:11:51.897Z,16.60
2018-07-16T02:14:20.508Z,16.65
2018-07-16T02:16:49.078Z,16.75
2018-07-16T02:19:17.748Z,16.87
2018-07-16T02:21:46.283Z,16.92
2018-07-16T02:24:14.867Z,17.00
2018-07-16T02:26:43.454Z,16.94
2018-07-16T02:29:13.597Z,16.87
2018-07-16T02:31:42.508Z,16.79
2018-07-16T02:34:11.481Z,16.73
2018-07-16T02:36:40.073Z,16.68
2018-07-16T02:39:08.875Z,16.47
2018-07-16T02:41:37.422Z,16.34
2018-07-16T02:44:05.960Z,16.24
2018-07-16T02:46:34.588Z,16.13
2018-07-16T02:49:03.177Z,16.16
2018-07-16T02:51:34.109Z,16.10
2018-07-16T02:54:02.685Z,16.17
2018-07-16T02:59:21.273Z,16.29
2018-07-16T03:01:49.824Z,16.33
2018-07-16T03:04:28.160Z,16.36
2018-07-16T03:06:56.760Z,16.38
2018-07-16T03:09:25.315Z,16.41
2018-07-16T03:11:53.929Z,16.34
2018-07-16T03:14:22.501Z,15.92
2018-07-16T03:16:51.036Z,15.72
2018-07-16T03:19:19.606Z,15.50
2018-07-16T03:21:48.309Z,15.59
2018-07-16T03:24:17.018Z,15.78
2018-07-16T03:26:45.596Z,16.00
2018-07-16T03:29:19.176Z,16.11
2018-07-16T03:31:47.767Z,16.20
2018-07-16T03:34:16.325Z,16.19
2018-07-16T03:36:44.965Z,16.12
2018-07-16T03:39:13.601Z,16.21
2018-07-16T03:41:42.185Z,16.30
2018-07-16T03:44:10.781Z,16.36
2018-07-16T03:46:39.400Z,16.42
2018-07-16T03:49:08.196Z,16.32
2018-07-16T03:51:36.783Z,16.35
2018-07-16T03:54:05.552Z,16.40
2018-07-16T03:56:34.119Z,16.45
2018-07-16T03:59:02.796Z,16.51
2018-07-16T04:01:31.397Z,16.47
2018-07-16T04:03:59.941Z,16.50
2018-07-16T04:06:29.335Z,16.50
2018-07-16T04:08:57.863Z,16.52
2018-07-16T04:11:26.777Z,16.56
2018-07-16T04:13:55.347Z,16.39
2018-07-16T04:16:23.975Z,16.38
2018-07-16T04:18:52.559Z,16.42
2018-07-16T04:21:21.176Z,16.49
2018-07-16T04:23:49.727Z,16.61
2018-07-16T04:26:18.383Z,16.74
2018-07-16T04:28:47.777Z,16.84
2018-07-16T04:31:16.919Z,16.97
2018-07-16T04:33:45.508Z,16.88
2018-07-16T04:36:14.061Z,16.76
2018-07-16T04:44:26.025Z,17.01
2018-07-16T04:46:55.728Z,17.12
2018-07-16T04:49:24.330Z,17.23
2018-07-16T04:51:52.928Z,17.33
2018-07-16T04:54:21.493Z,17.40
2018-07-16T04:56:50.076Z,17.46
2018-07-16T04:59:18.672Z,17.46
2018-07-16T05:01:47.206Z,17.48
2018-07-16T05:04:15.783Z,17.53
2018-07-16T05:06:44.372Z,17.64
2018-07-16T05:09:15.004Z,17.67
2018-07-16T05:11:43.560Z,17.72
2018-07-16T05:14:12.939Z,17.74
2018-07-16T05:16:41.542Z,17.77
2018-07-16T05:19:10.468Z,17.86
2018-07-16T05:21:39.061Z,17.86
2018-07-16T05:24:07.636Z,18.01
2018-07-16T05:26:36.518Z,18.11
2018-07-16T05:29:05.128Z,18.15
2018-07-16T05:31:33.715Z,18.18
2018-07-16T05:34:02.324Z,18.23
2018-07-16T05:36:30.877Z,18.34
2018-07-16T05:38:59.417Z,18.43
2018-07-16T05:41:28.157Z,18.51
2018-07-16T05:43:56.708Z,18.62
2018-07-16T05:46:25.300Z,18.64
2018-07-16T05:48:53.874Z,18.71
2018-07-16T05:51:22.411Z,18.86
2018-07-16T05:53:50.980Z,18.54
2018-07-16T05:56:19.796Z,18.42
2018-07-16T05:58:48.420Z,18.61
2018-07-16T06:01:16.976Z,18.82
2018-07-16T06:03:45.602Z,18.93
2018-07-16T06:06:15.111Z,19.07
2018-07-16T06:08:43.746Z,19.18
2018-07-16T06:11:13.690Z,19.13
2018-07-16T06:13:42.387Z,19.06
2018-07-16T06:16:11.212Z,19.23
2018-07-16T06:18:40.121Z,19.08
2018-07-16T06:21:08.784Z,19.06
2018-07-16T06:23:37.667Z,19.07
2018-07-16T06:26:06.311Z,19.18
2018-07-16T06:28:34.858Z,19.27
2018-07-16T06:31:03.469Z,19.44
2018-07-16T06:33:32.187Z,19.42
2018-07-16T06:36:00.749Z,19.45
2018-07-16T06:38:29.327Z,19.31
2018-07-16T06:40:58.232Z,19.51
2018-07-16T06:43:26.796Z,19.36
2018-07-16T06:45:55.433Z,19.40
2018-07-16T06:48:24.045Z,19.40
2018-07-16T06:50:53.044Z,19.77
2018-07-16T06:53:21.681Z,20.00
2018-07-16T06:55:50.447Z,19.67
2018-07-16T06:58:19.001Z,19.64
2018-07-16T07:00:47.580Z,19.79
2018-07-16T07:03:16.276Z,19.91
2018-07-16T07:05:44.909Z,20.15
2018-07-16T07:08:13.641Z,20.21
2018-07-16T07:10:42.514Z,20.15
2018-07-16T07:13:11.662Z,20.37
2018-07-16T07:15:40.253Z,20.45
2018-07-16T07:18:08.884Z,20.53
2018-07-16T07:20:37.460Z,20.57
2018-07-16T07:23:06.712Z,20.72
2018-07-16T07:25:35.508Z,20.73
2018-07-16T07:28:04.008Z,20.76
2018-07-16T07:30:32.611Z,20.62
2018-07-16T07:33:01.277Z,21.03
2018-07-16T07:35:30.280Z,21.10
2018-07-16T07:37:58.801Z,20.96
2018-07-16T07:43:19.972Z,21.23
2018-07-16T07:45:48.517Z,21.33
2018-07-16T07:48:17.132Z,21.54
2018-07-16T07:50:45.765Z,21.82
2018-07-16T07:53:14.454Z,21.68
2018-07-16T07:55:43.109Z,21.91
2018-07-16T07:58:11.690Z,22.06
2018-07-16T08:00:40.257Z,22.21
2018-07-16T08:03:09.685Z,22.35
2018-07-16T08:05:38.290Z,22.48
2018-07-16T08:08:13.468Z,22.23
2018-07-16T08:10:42.028Z,21.85
2018-07-16T08:13:10.657Z,22.00
2018-07-16T08:15:39.313Z,22.17
2018-07-16T08:18:07.909Z,22.30
2018-07-16T08:20:36.604Z,22.41
2018-07-16T08:23:05.277Z,22.21
2018-07-16T08:25:33.895Z,22.27
2018-07-16T08:28:02.703Z,22.41
2018-07-16T08:30:31.264Z,22.32
2018-07-16T08:33:00.236Z,22.45
2018-07-16T08:35:29.099Z,22.23
2018-07-16T08:37:57.744Z,22.41
2018-07-16T08:40:26.344Z,22.39
2018-07-16T08:42:55.016Z,22.26
2018-07-16T08:45:23.735Z,22.43
2018-07-16T08:47:52.354Z,22.44
2018-07-16T08:50:20.981Z,22.38
2018-07-16T08:52:49.677Z,22.53
2018-07-16T08:55:18.196Z,22.47
2018-07-16T08:57:46.776Z,22.42
2018-07-16T09:00:15.367Z,22.61
2018-07-16T09:02:43.945Z,22.60
2018-07-16T09:05:12.838Z,22.72
2018-07-16T09:07:41.439Z,22.88
2018-07-16T09:10:10.066Z,23.08
2018-07-16T09:12:38.651Z,23.25
2018-07-16T09:15:07.384Z,22.88
2018-07-16T09:17:36.084Z,23.18
2018-07-16T09:20:04.733Z,23.46
2018-07-16T09:22:33.355Z,23.62
2018-07-16T09:25:01.984Z,23.39
2018-07-16T09:27:30.664Z,23.66
2018-07-16T09:29:59.233Z,23.83
2018-07-16T09:32:27.787Z,23.87
2018-07-16T09:34:56.376Z,24.00
2018-07-16T09:37:24.939Z,23.99
2018-07-16T09:39:53.479Z,24.23
2018-07-16T09:42:22.110Z,23.90
2018-07-16T09:44:50.779Z,23.78
2018-07-16T09:47:19.320Z,23.55
2018-07-16T09:49:48.095Z,23.19
2018-07-16T09:52:16.804Z,23.06
2018-07-16T09:54:45.432Z,23.31
2018-07-16T09:57:14.244Z,23.57
2018-07-16T09:59:42.868Z,23.75
2018-07-16T10:02:15.455Z,23.86
2018-07-16T10:04:44.232Z,23.92
2018-07-16T10:07:15.622Z,23.89
2018-07-16T10:09:44.279Z,23.94
2018-07-16T10:12:12.972Z,24.00
2018-07-16T10:14:41.804Z,23.94
2018-07-16T10:17:10.899Z,24.12
2018-07-16T10:19:39.659Z,24.09
2018-07-16T10:22:08.316Z,24.13
2018-07-16T10:24:37.248Z,24.32
2018-07-16T10:27:05.910Z,24.27
2018-07-16T10:29:34.479Z,24.52
2018-07-16T10:32:03.044Z,24.68
2018-07-16T10:34:31.682Z,24.43
2018-07-16T10:37:00.264Z,23.63
2018-07-16T10:39:29.105Z,23.52
2018-07-16T10:41:57.706Z,23.97
2018-07-16T10:44:26.414Z,24.24
2018-07-16T10:46:55.032Z,23.88
2018-07-16T10:49:23.646Z,23.74
2018-07-16T10:51:52.428Z,24.10
2018-07-16T10:54:21.162Z,23.93
2018-07-16T10:56:49.848Z,24.21
2018-07-16T10:59:18.468Z,24.26
2018-07-16T11:01:47.088Z,24.25
2018-07-16T11:04:15.669Z,24.37
2018-07-16T11:06:44.318Z,24.60
2018-07-16T11:09:13.754Z,24.38
2018-07-16T11:11:42.467Z,24.45
2018-07-16T11:14:11.050Z,24.33
2018-07-16T11:16:39.629Z,24.32
2018-07-16T11:19:08.511Z,24.14
2018-07-16T11:21:37.098Z,24.21
2018-07-16T11:24:05.816Z,23.99
2018-07-16T11:26:34.375Z,24.20
2018-07-16T11:29:02.932Z,23.79
2018-07-16T11:31:31.789Z,24.04
2018-07-16T11:34:00.373Z,24.40
2018-07-16T11:36:29.232Z,24.17
2018-07-16T11:38:58.560Z,24.51
2018-07-16T11:41:27.517Z,24.29
2018-07-16T11:43:56.798Z,24.53
2018-07-16T11:46:25.568Z,24.55
2018-07-16T11:48:54.143Z,24.77
2018-07-16T11:51:23.005Z,25.35
2018-07-16T11:53:51.863Z,25.58
2018-07-16T11:59:12.493Z,25.78
2018-07-16T12:01:41.105Z,25.58
2018-07-16T12:04:10.135Z,25.07
2018-07-16T12:06:38.711Z,25.26
2018-07-16T12:09:13.437Z,25.76
2018-07-16T12:11:42.104Z,26.18
2018-07-16T12:14:10.796Z,26.45
2018-07-16T12:16:39.368Z,26.53
2018-07-16T12:19:07.973Z,25.92
2018-07-16T12:21:36.532Z,26.41
2018-07-16T12:24:05.587Z,26.66
2018-07-16T12:26:34.271Z,26.96
2018-07-16T12:29:02.872Z,27.21
2018-07-16T12:31:31.489Z,26.95
2018-07-16T12:34:00.057Z,27.28
2018-07-16T12:36:28.652Z,27.12
2018-07-16T12:38:57.279Z,27.32
2018-07-16T12:41:25.899Z,27.58
2018-07-16T12:43:54.450Z,27.84
2018-07-16T12:46:23.012Z,27.85
2018-07-16T12:48:51.615Z,27.94
2018-07-16T12:51:20.197Z,27.97
2018-07-16T12:53:48.776Z,28.03
2018-07-16T12:56:17.392Z,28.10
2018-07-16T12:58:46.080Z,28.25
2018-07-16T13:01:14.768Z,28.35
2018-07-16T13:03:43.387Z,28.29
2018-07-16T13:06:12.124Z,28.08
2018-07-16T13:08:40.824Z,27.89
2018-07-16T13:11:10.644Z,27.73
2018-07-16T13:13:39.345Z,27.42
2018-07-16T13:16:08.097Z,27.54
2018-07-16T13:18:36.953Z,27.29
2018-07-16T13:21:06.074Z,27.37
2018-07-16T13:23:34.788Z,27.57
2018-07-16T13:26:03.372Z,27.89
2018-07-16T13:28:32.124Z,28.14
2018-07-16T13:31:00.914Z,28.23
2018-07-16T13:33:29.493Z,28.38
2018-07-16T13:35:58.080Z,28.47
2018-07-16T13:38:26.741Z,28.69
2018-07-16T13:40:55.336Z,28.67
2018-07-16T13:43:24.069Z,28.51
2018-07-16T13:45:53.137Z,28.32
2018-07-16T13:48:21.813Z,28.42
2018-07-16T13:50:50.397Z,28.75
2018-07-16T13:53:19.099Z,28.79
2018-07-16T13:55:47.696Z,28.99
2018-07-16T13:58:16.398Z,29.05
2018-07-16T14:00:45.034Z,29.01
2018-07-16T14:03:13.810Z,28.75
2018-07-16T14:05:42.423Z,28.56
2018-07-16T14:08:11.044Z,28.47
2018-07-16T14:10:40.438Z,28.75
2018-07-16T14:13:11.812Z,28.98
2018-07-16T14:15:40.528Z,28.70
2018-07-16T14:18:09.116Z,28.50
2018-07-16T14:20:37.900Z,28.46
2018-07-16T14:23:06.499Z,28.31
2018-07-16T14:25:35.096Z,28.12
2018-07-16T14:28:03.805Z,28.09
2018-07-16T14:30:32.369Z,27.83
2018-07-16T14:33:00.939Z,27.56
2018-07-16T14:35:29.556Z,27.40
2018-07-16T14:37:58.093Z,27.26
2018-07-16T14:40:26.708Z,27.21
2018-07-16T14:42:55.324Z,27.05
2018-07-16T14:45:23.993Z,26.95
2018-07-16T14:47:52.579Z,26.85
2018-07-16T14:50:21.204Z,26.94
2018-07-16T14:52:49.836Z,26.96
2018-07-16T14:55:18.459Z,27.09
2018-07-16T14:57:47.154Z,27.13
2018-07-16T15:00:15.784Z,27.22
2018-07-16T15:02:44.571Z,27.42
2018-07-16T15:05:13.943Z,27.36
2018-07-16T15:07:42.515Z,27.31
2018-07-16T15:10:11.412Z,27.39
2018-07-16T15:12:39.984Z,27.45
2018-07-16T15:15:08.682Z,27.26
2018-07-16T15:17:37.283Z,27.15
2018-07-16T15:20:05.944Z,27.12
2018-07-16T15:22:34.429Z,26.94
2018-07-16T15:25:03.165Z,27.02
2018-07-16T15:27:32.582Z,26.84
2018-07-16T15:30:01.249Z,26.88
2018-07-16T15:32:29.826Z,26.81
2018-07-16T15:34:58.415Z,26.75
2018-07-16T15:37:26.968Z,26.84
2018-07-16T15:39:55.543Z,26.80
2018-07-16T15:42:24.135Z,26.91
2018-07-16T15:44:52.788Z,26.95
2018-07-16T15:47:21.417Z,26.99
2018-07-16T15:49:49.957Z,26.98
2018-07-16T15:52:18.875Z,26.96
2018-07-16T15:54:47.456Z,27.10
2018-07-16T15:57:16.169Z,27.26
2018-07-16T15:59:44.771Z,27.34
2018-07-16T16:02:21.444Z,27.54
2018-07-16T16:04:50.900Z,27.44
2018-07-16T16:07:19.476Z,27.41
2018-07-16T16:09:49.185Z,27.43
2018-07-16T16:12:24.016Z,27.39
2018-07-16T16:14:52.704Z,27.14
2018-07-16T16:17:22.244Z,26.92
2018-07-16T16:19:51.035Z,26.89
2018-07-16T16:22:21.251Z,26.86
2018-07-16T16:24:49.857Z,26.78
2018-07-16T16:27:18.601Z,26.80
2018-07-16T16:29:47.188Z,26.79
2018-07-16T16:32:15.832Z,26.73
2018-07-16T16:34:45.449Z,26.56
2018-07-16T16:37:15.338Z,26.44
2018-07-16T16:39:44.476Z,26.37
2018-07-16T16:42:13.135Z,26.27
2018-07-16T16:44:41.799Z,26.22
2018-07-16T16:47:12.778Z,26.22
2018-07-16T16:49:41.548Z,26.28
2018-07-16T16:52:10.447Z,26.20
2018-07-16T16:54:39.086Z,26.13
2018-07-16T16:57:08.518Z,25.96
2018-07-16T16:59:37.079Z,25.87
2018-07-16T17:02:05.716Z,25.86
2018-07-16T17:04:34.374Z,25.84
2018-07-16T17:07:02.936Z,25.83
2018-07-16T17:09:31.526Z,25.98
2018-07-16T17:12:00.183Z,25.90
2018-07-16T17:14:28.982Z,25.87
2018-07-16T17:16:57.622Z,25.96
2018-07-16T17:19:26.201Z,25.99
2018-07-16T17:21:54.956Z,25.95
2018-07-16T17:24:23.541Z,25.98
2018-07-16T17:26:52.081Z,25.85
2018-07-16T17:29:21.004Z,25.93
2018-07-16T17:31:49.644Z,25.89
2018-07-16T17:34:18.443Z,25.90
2018-07-16T17:36:47.043Z,25.86
2018-07-16T17:39:15.779Z,25.73
2018-07-16T17:41:44.319Z,25.51
2018-07-16T17:44:13.222Z,25.16
2018-07-16T17:46:41.842Z,25.07
2018-07-16T17:49:14.064Z,25.03
2018-07-16T17:51:42.650Z,25.01
2018-07-16T17:54:11.573Z,24.99
2018-07-16T17:56:40.157Z,24.90
2018-07-16T17:59:08.863Z,24.57
2018-07-16T18:01:37.599Z,24.37
2018-07-16T18:04:06.168Z,24.47
2018-07-16T18:06:34.752Z,24.60
2018-07-16T18:09:05.345Z,24.50
2018-07-16T18:11:34.076Z,24.41
2018-07-16T18:14:02.679Z,24.37
2018-07-16T18:16:31.266Z,24.24
2018-07-16T18:18:59.804Z,24.13
2018-07-16T18:21:28.388Z,24.12
2018-07-16T18:23:56.975Z,24.08
2018-07-16T18:26:25.687Z,24.08
2018-07-16T18:28:54.398Z,24.01
2018-07-16T18:31:22.964Z,23.89
2018-07-16T18:33:51.587Z,23.85
2018-07-16T18:36:20.276Z,23.71
2018-07-16T18:38:48.857Z,23.58
2018-07-16T18:41:17.442Z,23.29
2018-07-16T18:43:46.060Z,23.02
2018-07-16T18:46:14.642Z,22.95
2018-07-16T18:48:43.440Z,22.86
2018-07-16T18:51:15.609Z,22.70
2018-07-16T18:53:44.228Z,22.50
2018-07-16T18:56:13.036Z,22.44
2018-07-16T18:58:41.813Z,22.38
2018-07-16T19:01:10.392Z,22.31
2018-07-16T19:03:39.096Z,22.36
2018-07-16T19:06:07.640Z,22.39
2018-07-16T19:08:36.528Z,22.29
2018-07-16T19:11:05.181Z,22.09
2018-07-16T19:13:33.729Z,22.05
2018-07-16T19:16:02.276Z,22.00
2018-07-16T19:18:31.467Z,21.92
2018-07-16T19:21:00.051Z,21.87
2018-07-16T19:23:28.935Z,21.65
2018-07-16T19:25:57.506Z,21.32
2018-07-16T19:28:26.182Z,21.12
2018-07-16T19:30:54.793Z,20.96
2018-07-16T19:33:23.459Z,20.64
2018-07-16T19:35:52.088Z,20.51
2018-07-16T19:38:20.880Z,20.55
2018-07-16T19:40:49.669Z,20.79
2018-07-16T19:43:18.541Z,21.00
2018-07-16T19:45:47.118Z,21.03
2018-07-16T19:48:15.851Z,21.07
2018-07-16T19:50:44.709Z,21.11
2018-07-16T19:53:13.984Z,21.15
2018-07-16T19:55:42.699Z,21.24
2018-07-16T19:58:11.315Z,21.26
2018-07-16T20:00:40.267Z,21.02
2018-07-16T20:03:08.939Z,20.92
2018-07-16T20:05:37.776Z,20.89
2018-07-16T20:08:07.207Z,20.83
2018-07-16T20:10:35.933Z,20.80
2018-07-16T20:13:04.605Z,20.65
2018-07-16T20:15:33.581Z,20.61
2018-07-16T20:18:02.176Z,20.65
2018-07-16T20:20:30.954Z,20.69
2018-07-16T20:22:59.482Z,20.67
2018-07-16T20:25:28.309Z,20.57
2018-07-16T20:27:56.948Z,20.56
2018-07-16T20:30:25.702Z,20.59
2018-07-16T20:32:54.326Z,20.60
2018-07-16T20:35:23.000Z,20.58
2018-07-16T20:37:51.649Z,20.58
2018-07-16T20:40:20.245Z,20.52
2018-07-16T20:42:48.817Z,20.33
2018-07-16T20:45:17.396Z,20.23
2018-07-16T20:47:45.988Z,19.93
2018-07-16T20:50:14.661Z,19.99
2018-07-16T20:52:43.680Z,19.95
2018-07-16T20:55:13.265Z,20.02
2018-07-16T20:57:42.059Z,19.92
2018-07-16T21:00:10.744Z,19.87
2018-07-16T21:02:39.331Z,19.83
2018-07-16T21:05:07.957Z,19.77
2018-07-16T21:07:37.405Z,19.65
2018-07-16T21:10:06.051Z,19.43
2018-07-16T21:12:34.677Z,19.55
2018-07-16T21:15:03.325Z,19.63
2018-07-16T21:17:31.970Z,19.65
2018-07-16T21:20:00.548Z,19.56
2018-07-16T21:22:29.087Z,19.58
2018-07-16T21:24:57.676Z,19.63
2018-07-16T21:27:26.994Z,19.64
2018-07-16T21:29:56.156Z,19.63
2018-07-16T21:32:24.908Z,19.67
2018-07-16T21:34:53.603Z,19.66
2018-07-16T21:37:22.486Z,19.47
2018-07-16T21:39:51.208Z,19.36
2018-07-16T21:42:20.062Z,19.19
2018-07-16T21:44:48.804Z,19.11
2018-07-16T21:47:18.832Z,19.15
2018-07-16T21:49:47.709Z,19.09
2018-07-16T21:52:16.610Z,19.10
2018-07-16T21:54:45.452Z,19.03
2018-07-16T21:57:14.433Z,19.10
2018-07-16T21:59:43.019Z,19.13
2018-07-16T22:02:11.904Z,19.09
2018-07-16T22:04:40.627Z,19.11
2018-07-16T22:07:10.469Z,19.14
2018-07-16T22:09:39.140Z,19.06
2018-07-16T22:12:08.068Z,18.87
2018-07-16T22:14:36.796Z,18.72
2018-07-16T22:17:05.440Z,18.62
2018-07-16T22:19:34.137Z,18.60
2018-07-16T22:22:02.994Z,18.70
2018-07-16T22:24:31.645Z,18.75
2018-07-16T22:27:00.404Z,18.89
2018-07-16T22:29:31.299Z,18.97
2018-07-16T22:31:59.974Z,19.09
2018-07-16T22:34:29.931Z,19.24
2018-07-16T22:36:58.696Z,19.25
2018-07-16T22:39:27.345Z,19.22
2018-07-16T22:41:55.921Z,19.28
2018-07-16T22:44:24.928Z,19.29
2018-07-16T22:46:53.612Z,19.24
2018-07-16T22:49:22.630Z,19.22
2018-07-16T22:51:51.652Z,19.15
2018-07-16T22:54:20.548Z,19.08
2018-07-16T22:56:49.140Z,18.98
2018-07-16T22:59:17.915Z,18.96
2018-07-16T23:01:46.461Z,18.91
2018-07-16T23:04:15.109Z,18.87
2018-07-16T23:06:43.789Z,18.85
2018-07-16T23:09:12.571Z,18.87
2018-07-16T23:11:41.349Z,18.76
2018-07-16T23:14:09.992Z,18.62
2018-07-16T23:16:38.827Z,18.68
2018-07-16T23:19:08.087Z,18.71
2018-07-16T23:21:36.878Z,18.82
2018-07-16T23:24:05.483Z,18.94
2018-07-16T23:26:34.144Z,19.02
2018-07-16T23:29:02.788Z,19.00
2018-07-16T23:31:31.348Z,19.04
2018-07-16T23:34:00.022Z,19.06
2018-07-16T23:36:28.585Z,19.08
2018-07-16T23:38:57.196Z,19.00
2018-07-16T23:41:26.745Z,18.87
2018-07-16T23:43:55.378Z,18.66
2018-07-16T23:46:24.268Z,18.16
2018-07-16T23:48:52.821Z,18.13
2018-07-16T23:51:21.508Z,18.21
2018-07-16T23:53:50.125Z,18.26
2018-07-16T23:56:18.773Z,18.18
2018-07-16T23:58:47.328Z,18.38
